sensor_id;sensor_type;location;lat;lon;timestamp;temperature;humidity
7254;DHT22;4060;49.186;9.226;2023-06-26T00:01:21;31.90;32.00
7254;DHT22;4060;49.186;9.226;2023-06-26T00:03:51;31.80;32.00
7254;DHT22;4060;49.186;9.226;2023-06-26T00:06:23;31.80;32.00
7254;DHT22;4060;49.186;9.226;2023-06-26T00:08:54;31.80;32.10
7254;DHT22;4060;49.186;9.226;2023-06-26T00:11:23;31.80;32.20
7254;DHT22;4060;49.186;9.226;2023-06-26T00:13:54;31.70;32.20
7254;DHT22;4060;49.186;9.226;2023-06-26T00:16:23;31.70;32.20
7254;DHT22;4060;49.186;9.226;2023-06-26T00:18:54;31.70;32.30
7254;DHT22;4060;49.186;9.226;2023-06-26T00:21:31;31.60;32.30
7254;DHT22;4060;49.186;9.226;2023-06-26T00:24:00;31.60;32.40
7254;DHT22;4060;49.186;9.226;2023-06-26T00:26:29;31.60;32.50
7254;DHT22;4060;49.186;9.226;2023-06-26T00:28:59;31.60;32.50
7254;DHT22;4060;49.186;9.226;2023-06-26T00:31:29;31.60;32.60
7254;DHT22;4060;49.186;9.226;2023-06-26T00:33:59;31.50;32.60
7254;DHT22;4060;49.186;9.226;2023-06-26T00:36:30;31.50;32.60
7254;DHT22;4060;49.186;9.226;2023-06-26T00:39:00;31.40;32.60
7254;DHT22;4060;49.186;9.226;2023-06-26T00:41:30;31.40;32.70
7254;DHT22;4060;49.186;9.226;2023-06-26T00:44:00;31.40;32.80
7254;DHT22;4060;49.186;9.226;2023-06-26T00:46:29;31.30;32.80
7254;DHT22;4060;49.186;9.226;2023-06-26T00:48:59;31.30;32.80
7254;DHT22;4060;49.186;9.226;2023-06-26T00:51:31;31.30;32.90
7254;DHT22;4060;49.186;9.226;2023-06-26T00:54:01;31.30;32.90
7254;DHT22;4060;49.186;9.226;2023-06-26T00:56:30;31.30;33.00
7254;DHT22;4060;49.186;9.226;2023-06-26T00:59:00;31.20;32.90
7254;DHT22;4060;49.186;9.226;2023-06-26T01:01:30;31.20;32.90
7254;DHT22;4060;49.186;9.226;2023-06-26T01:04:01;31.20;33.00
7254;DHT22;4060;49.186;9.226;2023-06-26T01:06:34;31.10;33.10
7254;DHT22;4060;49.186;9.226;2023-06-26T01:09:04;31.10;33.10
7254;DHT22;4060;49.186;9.226;2023-06-26T01:11:34;31.00;33.10
7254;DHT22;4060;49.186;9.226;2023-06-26T01:14:03;31.00;33.20
7254;DHT22;4060;49.186;9.226;2023-06-26T01:16:33;31.00;33.20
7254;DHT22;4060;49.186;9.226;2023-06-26T01:19:07;31.00;33.20
7254;DHT22;4060;49.186;9.226;2023-06-26T01:21:43;30.90;33.20
7254;DHT22;4060;49.186;9.226;2023-06-26T01:24:17;30.90;33.30
7254;DHT22;4060;49.186;9.226;2023-06-26T01:27:01;30.90;33.30
7254;DHT22;4060;49.186;9.226;2023-06-26T01:29:35;30.90;33.40
7254;DHT22;4060;49.186;9.226;2023-06-26T01:32:06;30.80;33.30
7254;DHT22;4060;49.186;9.226;2023-06-26T01:34:35;30.80;33.40
7254;DHT22;4060;49.186;9.226;2023-06-26T01:37:04;30.80;33.50
7254;DHT22;4060;49.186;9.226;2023-06-26T01:39:33;30.80;33.50
7254;DHT22;4060;49.186;9.226;2023-06-26T01:42:04;30.70;33.50
7254;DHT22;4060;49.186;9.226;2023-06-26T01:44:37;30.70;33.50
7254;DHT22;4060;49.186;9.226;2023-06-26T01:47:11;30.70;33.60
7254;DHT22;4060;49.186;9.226;2023-06-26T01:49:54;30.60;33.60
7254;DHT22;4060;49.186;9.226;2023-06-26T01:52:31;30.60;33.70
7254;DHT22;4060;49.186;9.226;2023-06-26T01:55:05;30.60;33.70
7254;DHT22;4060;49.186;9.226;2023-06-26T01:57:40;30.50;33.80
7254;DHT22;4060;49.186;9.226;2023-06-26T02:00:12;30.50;33.80
7254;DHT22;4060;49.186;9.226;2023-06-26T02:02:42;30.40;33.80
7254;DHT22;4060;49.186;9.226;2023-06-26T02:05:12;30.50;33.80
7254;DHT22;4060;49.186;9.226;2023-06-26T02:07:42;30.40;33.80
7254;DHT22;4060;49.186;9.226;2023-06-26T02:10:12;30.40;33.90
7254;DHT22;4060;49.186;9.226;2023-06-26T02:12:43;30.30;33.90
7254;DHT22;4060;49.186;9.226;2023-06-26T02:15:12;30.30;33.90
7254;DHT22;4060;49.186;9.226;2023-06-26T02:17:42;30.30;33.90
7254;DHT22;4060;49.186;9.226;2023-06-26T02:20:16;30.30;33.90
7254;DHT22;4060;49.186;9.226;2023-06-26T02:22:45;30.30;34.00
7254;DHT22;4060;49.186;9.226;2023-06-26T02:25:15;30.20;34.00
7254;DHT22;4060;49.186;9.226;2023-06-26T02:27:50;30.20;34.10
7254;DHT22;4060;49.186;9.226;2023-06-26T02:30:20;30.10;34.10
7254;DHT22;4060;49.186;9.226;2023-06-26T02:32:49;30.10;34.10
7254;DHT22;4060;49.186;9.226;2023-06-26T02:35:22;30.10;34.20
7254;DHT22;4060;49.186;9.226;2023-06-26T02:37:52;30.10;34.30
7254;DHT22;4060;49.186;9.226;2023-06-26T02:40:21;30.00;34.30
7254;DHT22;4060;49.186;9.226;2023-06-26T02:42:52;30.00;34.40
7254;DHT22;4060;49.186;9.226;2023-06-26T02:45:22;30.00;34.50
7254;DHT22;4060;49.186;9.226;2023-06-26T02:47:51;30.00;34.50
7254;DHT22;4060;49.186;9.226;2023-06-26T02:50:21;29.90;34.50
7254;DHT22;4060;49.186;9.226;2023-06-26T02:52:50;29.90;34.50
7254;DHT22;4060;49.186;9.226;2023-06-26T02:55:20;29.90;34.50
7254;DHT22;4060;49.186;9.226;2023-06-26T02:57:52;29.90;34.60
7254;DHT22;4060;49.186;9.226;2023-06-26T03:00:21;29.80;34.70
7254;DHT22;4060;49.186;9.226;2023-06-26T03:02:52;29.80;34.70
7254;DHT22;4060;49.186;9.226;2023-06-26T03:05:22;29.80;34.70
7254;DHT22;4060;49.186;9.226;2023-06-26T03:07:52;29.80;34.80
7254;DHT22;4060;49.186;9.226;2023-06-26T03:10:21;29.70;34.80
7254;DHT22;4060;49.186;9.226;2023-06-26T03:12:53;29.70;34.80
7254;DHT22;4060;49.186;9.226;2023-06-26T03:15:23;29.70;34.90
7254;DHT22;4060;49.186;9.226;2023-06-26T03:17:52;29.60;34.90
7254;DHT22;4060;49.186;9.226;2023-06-26T03:20:22;29.60;34.90
7254;DHT22;4060;49.186;9.226;2023-06-26T03:22:53;29.60;34.90
7254;DHT22;4060;49.186;9.226;2023-06-26T03:25:22;29.50;34.90
7254;DHT22;4060;49.186;9.226;2023-06-26T03:27:54;29.50;35.00
7254;DHT22;4060;49.186;9.226;2023-06-26T03:30:23;29.50;35.10
7254;DHT22;4060;49.186;9.226;2023-06-26T03:32:54;29.50;35.10
7254;DHT22;4060;49.186;9.226;2023-06-26T03:35:24;29.40;35.10
7254;DHT22;4060;49.186;9.226;2023-06-26T03:37:53;29.40;35.20
7254;DHT22;4060;49.186;9.226;2023-06-26T03:40:22;29.40;35.80
7254;DHT22;4060;49.186;9.226;2023-06-26T03:42:54;29.40;35.40
7254;DHT22;4060;49.186;9.226;2023-06-26T03:45:24;29.30;35.90
7254;DHT22;4060;49.186;9.226;2023-06-26T03:47:53;29.30;35.40
7254;DHT22;4060;49.186;9.226;2023-06-26T03:50:23;29.20;35.40
7254;DHT22;4060;49.186;9.226;2023-06-26T03:52:52;29.20;35.50
7254;DHT22;4060;49.186;9.226;2023-06-26T03:55:21;29.20;35.60
7254;DHT22;4060;49.186;9.226;2023-06-26T03:57:53;29.20;35.60
7254;DHT22;4060;49.186;9.226;2023-06-26T04:00:22;29.20;36.30
7254;DHT22;4060;49.186;9.226;2023-06-26T04:02:52;29.10;35.70
7254;DHT22;4060;49.186;9.226;2023-06-26T04:05:22;29.10;35.80
7254;DHT22;4060;49.186;9.226;2023-06-26T04:07:52;29.10;35.90
7254;DHT22;4060;49.186;9.226;2023-06-26T04:10:21;29.00;35.80
7254;DHT22;4060;49.186;9.226;2023-06-26T04:12:50;29.00;35.90
7254;DHT22;4060;49.186;9.226;2023-06-26T04:15:22;29.00;36.00
7254;DHT22;4060;49.186;9.226;2023-06-26T04:17:52;29.00;36.10
7254;DHT22;4060;49.186;9.226;2023-06-26T04:20:21;28.90;36.00
7254;DHT22;4060;49.186;9.226;2023-06-26T04:22:50;28.90;36.10
7254;DHT22;4060;49.186;9.226;2023-06-26T04:25:20;28.90;36.10
7254;DHT22;4060;49.186;9.226;2023-06-26T04:27:49;28.90;36.20
7254;DHT22;4060;49.186;9.226;2023-06-26T04:30:21;28.80;36.20
7254;DHT22;4060;49.186;9.226;2023-06-26T04:32:51;28.80;36.30
7254;DHT22;4060;49.186;9.226;2023-06-26T04:35:21;28.80;36.30
7254;DHT22;4060;49.186;9.226;2023-06-26T04:37:50;28.80;36.50
7254;DHT22;4060;49.186;9.226;2023-06-26T04:40:19;28.70;36.50
7254;DHT22;4060;49.186;9.226;2023-06-26T04:42:49;28.70;36.50
7254;DHT22;4060;49.186;9.226;2023-06-26T04:45:19;28.70;36.60
7254;DHT22;4060;49.186;9.226;2023-06-26T04:47:51;28.70;36.70
7254;DHT22;4060;49.186;9.226;2023-06-26T04:50:20;28.70;36.80
7254;DHT22;4060;49.186;9.226;2023-06-26T04:52:50;28.70;36.80
7254;DHT22;4060;49.186;9.226;2023-06-26T04:55:19;28.70;36.90
7254;DHT22;4060;49.186;9.226;2023-06-26T04:57:51;28.70;36.90
7254;DHT22;4060;49.186;9.226;2023-06-26T05:00:21;28.70;37.00
7254;DHT22;4060;49.186;9.226;2023-06-26T05:02:54;28.60;37.10
7254;DHT22;4060;49.186;9.226;2023-06-26T05:05:28;28.70;37.30
7254;DHT22;4060;49.186;9.226;2023-06-26T05:07:58;28.70;37.40
7254;DHT22;4060;49.186;9.226;2023-06-26T05:10:27;28.70;37.50
7254;DHT22;4060;49.186;9.226;2023-06-26T05:12:57;28.70;37.60
7254;DHT22;4060;49.186;9.226;2023-06-26T05:15:27;28.70;37.70
7254;DHT22;4060;49.186;9.226;2023-06-26T05:17:58;28.70;38.30
7254;DHT22;4060;49.186;9.226;2023-06-26T05:20:28;28.70;38.00
7254;DHT22;4060;49.186;9.226;2023-06-26T05:22:58;28.70;38.00
7254;DHT22;4060;49.186;9.226;2023-06-26T05:25:28;28.70;38.20
7254;DHT22;4060;49.186;9.226;2023-06-26T05:27:58;28.70;38.30
7254;DHT22;4060;49.186;9.226;2023-06-26T05:30:28;28.70;38.30
7254;DHT22;4060;49.186;9.226;2023-06-26T05:33:01;28.80;38.50
7254;DHT22;4060;49.186;9.226;2023-06-26T05:35:33;28.80;38.50
7254;DHT22;4060;49.186;9.226;2023-06-26T05:38:03;28.80;38.60
7254;DHT22;4060;49.186;9.226;2023-06-26T05:40:33;28.90;38.60
7254;DHT22;4060;49.186;9.226;2023-06-26T05:43:03;28.90;38.60
7254;DHT22;4060;49.186;9.226;2023-06-26T05:45:33;28.90;38.60
7254;DHT22;4060;49.186;9.226;2023-06-26T05:48:04;28.90;38.70
7254;DHT22;4060;49.186;9.226;2023-06-26T05:50:35;28.90;38.70
7254;DHT22;4060;49.186;9.226;2023-06-26T05:53:05;29.00;38.70
7254;DHT22;4060;49.186;9.226;2023-06-26T05:55:35;29.00;38.70
7254;DHT22;4060;49.186;9.226;2023-06-26T05:58:05;29.00;38.70
7254;DHT22;4060;49.186;9.226;2023-06-26T06:00:35;29.00;38.70
7254;DHT22;4060;49.186;9.226;2023-06-26T06:03:06;29.10;38.80
7254;DHT22;4060;49.186;9.226;2023-06-26T06:05:37;29.10;38.80
7254;DHT22;4060;49.186;9.226;2023-06-26T06:08:06;29.10;38.80
7254;DHT22;4060;49.186;9.226;2023-06-26T06:10:36;29.10;38.80
7254;DHT22;4060;49.186;9.226;2023-06-26T06:13:04;29.20;38.70
7254;DHT22;4060;49.186;9.226;2023-06-26T06:15:34;29.20;38.70
7254;DHT22;4060;49.186;9.226;2023-06-26T06:18:06;29.20;38.60
7254;DHT22;4060;49.186;9.226;2023-06-26T06:20:39;29.20;38.60
7254;DHT22;4060;49.186;9.226;2023-06-26T06:23:08;29.20;38.60
7254;DHT22;4060;49.186;9.226;2023-06-26T06:25:38;29.20;38.60
7254;DHT22;4060;49.186;9.226;2023-06-26T06:28:07;29.30;38.60
7254;DHT22;4060;49.186;9.226;2023-06-26T06:30:37;29.20;38.50
7254;DHT22;4060;49.186;9.226;2023-06-26T06:33:08;29.30;38.50
7254;DHT22;4060;49.186;9.226;2023-06-26T06:35:37;29.30;38.50
7254;DHT22;4060;49.186;9.226;2023-06-26T06:38:07;29.40;38.60
7254;DHT22;4060;49.186;9.226;2023-06-26T06:40:36;29.40;39.10
7254;DHT22;4060;49.186;9.226;2023-06-26T06:43:05;29.40;38.50
7254;DHT22;4060;49.186;9.226;2023-06-26T06:45:35;29.40;38.40
7254;DHT22;4060;49.186;9.226;2023-06-26T06:48:05;29.40;38.40
7254;DHT22;4060;49.186;9.226;2023-06-26T06:50:36;29.40;38.30
7254;DHT22;4060;49.186;9.226;2023-06-26T06:53:07;29.50;38.30
7254;DHT22;4060;49.186;9.226;2023-06-26T06:55:36;29.40;38.20
7254;DHT22;4060;49.186;9.226;2023-06-26T06:58:05;29.50;38.20
7254;DHT22;4060;49.186;9.226;2023-06-26T07:00:35;29.50;38.00
7254;DHT22;4060;49.186;9.226;2023-06-26T07:03:05;29.50;37.90
7254;DHT22;4060;49.186;9.226;2023-06-26T07:05:36;29.60;37.90
7254;DHT22;4060;49.186;9.226;2023-06-26T07:08:06;29.60;38.00
7254;DHT22;4060;49.186;9.226;2023-06-26T07:10:35;29.60;37.90
7254;DHT22;4060;49.186;9.226;2023-06-26T07:13:05;29.60;37.90
7254;DHT22;4060;49.186;9.226;2023-06-26T07:15:34;29.60;37.80
7254;DHT22;4060;49.186;9.226;2023-06-26T07:18:04;29.70;37.80
7254;DHT22;4060;49.186;9.226;2023-06-26T07:20:36;29.70;37.80
7254;DHT22;4060;49.186;9.226;2023-06-26T07:23:05;29.70;37.70
7254;DHT22;4060;49.186;9.226;2023-06-26T07:25:35;29.70;37.60
7254;DHT22;4060;49.186;9.226;2023-06-26T07:28:05;29.80;37.60
7254;DHT22;4060;49.186;9.226;2023-06-26T07:30:40;29.80;37.50
7254;DHT22;4060;49.186;9.226;2023-06-26T07:33:10;29.80;37.50
7254;DHT22;4060;49.186;9.226;2023-06-26T07:35:41;29.80;37.40
7254;DHT22;4060;49.186;9.226;2023-06-26T07:38:10;29.90;37.40
7254;DHT22;4060;49.186;9.226;2023-06-26T07:40:40;29.90;37.40
7254;DHT22;4060;49.186;9.226;2023-06-26T07:43:18;29.90;37.40
7254;DHT22;4060;49.186;9.226;2023-06-26T07:45:48;29.90;37.40
7254;DHT22;4060;49.186;9.226;2023-06-26T07:48:18;30.00;37.30
7254;DHT22;4060;49.186;9.226;2023-06-26T07:50:49;30.00;37.30
7254;DHT22;4060;49.186;9.226;2023-06-26T07:53:19;30.00;37.30
7254;DHT22;4060;49.186;9.226;2023-06-26T07:55:49;30.10;37.30
7254;DHT22;4060;49.186;9.226;2023-06-26T07:58:18;30.10;37.30
7254;DHT22;4060;49.186;9.226;2023-06-26T08:00:48;30.10;37.30
7254;DHT22;4060;49.186;9.226;2023-06-26T08:03:17;30.20;37.20
7254;DHT22;4060;49.186;9.226;2023-06-26T08:05:50;30.20;37.20
7254;DHT22;4060;49.186;9.226;2023-06-26T08:08:19;30.20;37.00
7254;DHT22;4060;49.186;9.226;2023-06-26T08:10:49;30.30;36.90
7254;DHT22;4060;49.186;9.226;2023-06-26T08:13:19;30.30;36.80
7254;DHT22;4060;49.186;9.226;2023-06-26T08:15:48;30.30;36.70
7254;DHT22;4060;49.186;9.226;2023-06-26T08:18:18;30.40;36.70
7254;DHT22;4060;49.186;9.226;2023-06-26T08:20:49;30.40;36.60
7254;DHT22;4060;49.186;9.226;2023-06-26T08:23:19;30.40;36.60
7254;DHT22;4060;49.186;9.226;2023-06-26T08:25:48;30.40;36.50
7254;DHT22;4060;49.186;9.226;2023-06-26T08:28:18;30.50;36.40
7254;DHT22;4060;49.186;9.226;2023-06-26T08:30:53;30.50;36.40
7254;DHT22;4060;49.186;9.226;2023-06-26T08:33:22;30.60;36.40
7254;DHT22;4060;49.186;9.226;2023-06-26T08:35:54;30.60;36.80
7254;DHT22;4060;49.186;9.226;2023-06-26T08:38:24;30.60;36.20
7254;DHT22;4060;49.186;9.226;2023-06-26T08:40:53;30.60;36.10
7254;DHT22;4060;49.186;9.226;2023-06-26T08:43:23;30.70;36.10
7254;DHT22;4060;49.186;9.226;2023-06-26T08:45:53;30.70;36.00
7254;DHT22;4060;49.186;9.226;2023-06-26T08:48:23;30.80;36.00
7254;DHT22;4060;49.186;9.226;2023-06-26T08:50:56;30.80;35.90
7254;DHT22;4060;49.186;9.226;2023-06-26T08:53:33;30.80;35.90
7254;DHT22;4060;49.186;9.226;2023-06-26T08:56:08;30.80;35.90
7254;DHT22;4060;49.186;9.226;2023-06-26T08:58:39;30.90;35.80
7254;DHT22;4060;49.186;9.226;2023-06-26T09:01:08;30.90;35.70
7254;DHT22;4060;49.186;9.226;2023-06-26T09:03:38;30.90;35.70
7254;DHT22;4060;49.186;9.226;2023-06-26T09:06:11;31.00;35.60
7254;DHT22;4060;49.186;9.226;2023-06-26T09:08:41;31.00;35.60
7254;DHT22;4060;49.186;9.226;2023-06-26T09:11:10;31.00;35.60
7254;DHT22;4060;49.186;9.226;2023-06-26T09:13:40;31.10;35.60
7254;DHT22;4060;49.186;9.226;2023-06-26T09:16:11;31.10;35.50
7254;DHT22;4060;49.186;9.226;2023-06-26T09:18:42;31.10;35.50
7254;DHT22;4060;49.186;9.226;2023-06-26T09:21:15;31.20;35.50
7254;DHT22;4060;49.186;9.226;2023-06-26T09:23:46;31.20;35.40
7254;DHT22;4060;49.186;9.226;2023-06-26T09:26:17;31.30;35.40
7254;DHT22;4060;49.186;9.226;2023-06-26T09:28:47;31.30;35.30
7254;DHT22;4060;49.186;9.226;2023-06-26T09:31:18;31.30;35.10
7254;DHT22;4060;49.186;9.226;2023-06-26T09:33:48;31.40;35.10
7254;DHT22;4060;49.186;9.226;2023-06-26T09:36:21;31.40;35.10
7254;DHT22;4060;49.186;9.226;2023-06-26T09:38:52;31.40;35.10
7254;DHT22;4060;49.186;9.226;2023-06-26T09:41:22;31.50;35.00
7254;DHT22;4060;49.186;9.226;2023-06-26T09:43:52;31.50;35.00
7254;DHT22;4060;49.186;9.226;2023-06-26T09:46:26;31.50;34.90
7254;DHT22;4060;49.186;9.226;2023-06-26T09:49:04;31.60;34.90
7254;DHT22;4060;49.186;9.226;2023-06-26T09:51:36;31.60;34.90
7254;DHT22;4060;49.186;9.226;2023-06-26T09:54:06;31.60;34.90
7254;DHT22;4060;49.186;9.226;2023-06-26T09:56:36;31.70;34.80
7254;DHT22;4060;49.186;9.226;2023-06-26T09:59:06;31.70;34.80
7254;DHT22;4060;49.186;9.226;2023-06-26T10:01:43;31.70;34.90
7254;DHT22;4060;49.186;9.226;2023-06-26T10:04:15;31.80;34.80
7254;DHT22;4060;49.186;9.226;2023-06-26T10:06:47;31.80;34.80
7254;DHT22;4060;49.186;9.226;2023-06-26T10:09:21;31.80;34.70
7254;DHT22;4060;49.186;9.226;2023-06-26T10:11:55;31.90;34.70
7254;DHT22;4060;49.186;9.226;2023-06-26T10:14:27;31.90;34.70
7254;DHT22;4060;49.186;9.226;2023-06-26T10:16:59;31.90;34.60
7254;DHT22;4060;49.186;9.226;2023-06-26T10:19:30;31.90;34.60
7254;DHT22;4060;49.186;9.226;2023-06-26T10:22:05;32.00;34.70
7254;DHT22;4060;49.186;9.226;2023-06-26T10:24:36;32.00;34.70
7254;DHT22;4060;49.186;9.226;2023-06-26T10:27:10;32.00;34.60
7254;DHT22;4060;49.186;9.226;2023-06-26T10:29:45;32.00;34.50
7254;DHT22;4060;49.186;9.226;2023-06-26T10:32:17;32.10;34.60
7254;DHT22;4060;49.186;9.226;2023-06-26T10:34:47;32.10;34.50
7254;DHT22;4060;49.186;9.226;2023-06-26T10:37:18;32.10;34.60
7254;DHT22;4060;49.186;9.226;2023-06-26T10:39:50;32.20;34.60
7254;DHT22;4060;49.186;9.226;2023-06-26T10:42:36;32.20;34.70
7254;DHT22;4060;49.186;9.226;2023-06-26T10:45:14;32.30;34.70
7254;DHT22;4060;49.186;9.226;2023-06-26T10:47:48;32.30;34.70
7254;DHT22;4060;49.186;9.226;2023-06-26T10:50:19;32.30;34.70
7254;DHT22;4060;49.186;9.226;2023-06-26T10:53:11;32.30;34.80
7254;DHT22;4060;49.186;9.226;2023-06-26T10:55:49;32.30;34.80
7254;DHT22;4060;49.186;9.226;2023-06-26T10:58:34;32.40;34.80
7254;DHT22;4060;49.186;9.226;2023-06-26T11:01:21;32.40;34.80
7254;DHT22;4060;49.186;9.226;2023-06-26T11:04:04;32.40;34.70
7254;DHT22;4060;49.186;9.226;2023-06-26T11:06:34;32.50;34.80
7254;DHT22;4060;49.186;9.226;2023-06-26T11:09:13;32.50;34.80
7254;DHT22;4060;49.186;9.226;2023-06-26T11:11:58;32.50;34.80
7254;DHT22;4060;49.186;9.226;2023-06-26T11:14:32;32.50;34.80
7254;DHT22;4060;49.186;9.226;2023-06-26T11:17:06;32.50;34.80
7254;DHT22;4060;49.186;9.226;2023-06-26T11:19:43;32.50;34.90
7254;DHT22;4060;49.186;9.226;2023-06-26T11:22:14;32.60;35.00
7254;DHT22;4060;49.186;9.226;2023-06-26T11:24:46;32.60;35.00
7254;DHT22;4060;49.186;9.226;2023-06-26T11:27:17;32.60;35.00
7254;DHT22;4060;49.186;9.226;2023-06-26T11:29:48;32.60;35.10
7254;DHT22;4060;49.186;9.226;2023-06-26T11:32:18;32.70;35.10
7254;DHT22;4060;49.186;9.226;2023-06-26T11:34:48;32.70;35.10
7254;DHT22;4060;49.186;9.226;2023-06-26T11:37:19;32.80;35.20
7254;DHT22;4060;49.186;9.226;2023-06-26T11:39:51;32.80;35.20
7254;DHT22;4060;49.186;9.226;2023-06-26T11:42:21;32.80;35.30
7254;DHT22;4060;49.186;9.226;2023-06-26T11:44:52;32.80;35.30
7254;DHT22;4060;49.186;9.226;2023-06-26T11:47:22;32.90;35.30
7254;DHT22;4060;49.186;9.226;2023-06-26T11:49:52;32.90;35.30
7254;DHT22;4060;49.186;9.226;2023-06-26T11:52:22;33.00;35.30
7254;DHT22;4060;49.186;9.226;2023-06-26T11:54:55;33.00;35.30
7254;DHT22;4060;49.186;9.226;2023-06-26T11:57:25;33.00;35.30
7254;DHT22;4060;49.186;9.226;2023-06-26T11:59:55;33.00;35.20
7254;DHT22;4060;49.186;9.226;2023-06-26T12:02:24;33.00;35.20
7254;DHT22;4060;49.186;9.226;2023-06-26T12:04:55;33.00;35.10
7254;DHT22;4060;49.186;9.226;2023-06-26T12:07:24;33.10;35.20
7254;DHT22;4060;49.186;9.226;2023-06-26T12:09:57;33.10;35.20
7254;DHT22;4060;49.186;9.226;2023-06-26T12:12:27;33.10;35.20
7254;DHT22;4060;49.186;9.226;2023-06-26T12:14:57;33.20;35.20
7254;DHT22;4060;49.186;9.226;2023-06-26T12:17:27;33.20;35.20
7254;DHT22;4060;49.186;9.226;2023-06-26T12:19:56;33.20;35.20
7254;DHT22;4060;49.186;9.226;2023-06-26T12:22:34;33.20;35.20
7254;DHT22;4060;49.186;9.226;2023-06-26T12:25:07;33.20;35.20
7254;DHT22;4060;49.186;9.226;2023-06-26T12:27:37;33.30;35.20
7254;DHT22;4060;49.186;9.226;2023-06-26T12:30:07;33.30;35.10
7254;DHT22;4060;49.186;9.226;2023-06-26T12:32:36;33.30;35.10
7254;DHT22;4060;49.186;9.226;2023-06-26T12:35:06;33.40;35.20
7254;DHT22;4060;49.186;9.226;2023-06-26T12:37:37;33.40;35.10
7254;DHT22;4060;49.186;9.226;2023-06-26T12:40:20;33.40;35.00
7254;DHT22;4060;49.186;9.226;2023-06-26T12:42:50;33.40;34.90
7254;DHT22;4060;49.186;9.226;2023-06-26T12:45:19;33.40;34.90
7254;DHT22;4060;49.186;9.226;2023-06-26T12:47:49;33.50;34.90
7254;DHT22;4060;49.186;9.226;2023-06-26T12:50:20;33.50;34.80
7254;DHT22;4060;49.186;9.226;2023-06-26T12:52:49;33.50;34.80
7254;DHT22;4060;49.186;9.226;2023-06-26T12:55:22;33.50;34.70
7254;DHT22;4060;49.186;9.226;2023-06-26T12:57:51;33.60;34.70
7254;DHT22;4060;49.186;9.226;2023-06-26T13:00:21;33.60;34.70
7254;DHT22;4060;49.186;9.226;2023-06-26T13:02:51;33.60;34.60
7254;DHT22;4060;49.186;9.226;2023-06-26T13:05:21;33.60;34.50
7254;DHT22;4060;49.186;9.226;2023-06-26T13:07:50;33.70;34.50
7254;DHT22;4060;49.186;9.226;2023-06-26T13:10:22;33.70;34.40
7254;DHT22;4060;49.186;9.226;2023-06-26T13:12:52;33.70;34.20
7254;DHT22;4060;49.186;9.226;2023-06-26T13:15:21;33.70;34.00
7254;DHT22;4060;49.186;9.226;2023-06-26T13:17:51;33.80;34.00
7254;DHT22;4060;49.186;9.226;2023-06-26T13:20:20;33.80;33.90
7254;DHT22;4060;49.186;9.226;2023-06-26T13:22:50;33.80;33.90
7254;DHT22;4060;49.186;9.226;2023-06-26T13:25:23;33.90;33.80
7254;DHT22;4060;49.186;9.226;2023-06-26T13:27:52;33.90;33.70
7254;DHT22;4060;49.186;9.226;2023-06-26T13:30:22;33.90;33.60
7254;DHT22;4060;49.186;9.226;2023-06-26T13:32:52;34.00;33.50
7254;DHT22;4060;49.186;9.226;2023-06-26T13:35:21;34.00;33.30
7254;DHT22;4060;49.186;9.226;2023-06-26T13:37:52;34.00;33.10
7254;DHT22;4060;49.186;9.226;2023-06-26T13:40:23;34.00;33.00
7254;DHT22;4060;49.186;9.226;2023-06-26T13:42:53;34.10;32.80
7254;DHT22;4060;49.186;9.226;2023-06-26T13:45:24;34.10;32.80
7254;DHT22;4060;49.186;9.226;2023-06-26T13:47:55;34.10;32.70
7254;DHT22;4060;49.186;9.226;2023-06-26T13:50:24;34.20;32.60
7254;DHT22;4060;49.186;9.226;2023-06-26T13:52:54;34.20;32.50
7254;DHT22;4060;49.186;9.226;2023-06-26T13:55:26;34.20;32.30
7254;DHT22;4060;49.186;9.226;2023-06-26T13:57:55;34.20;32.10
7254;DHT22;4060;49.186;9.226;2023-06-26T14:00:25;34.20;32.00
7254;DHT22;4060;49.186;9.226;2023-06-26T14:02:55;34.20;31.90
7254;DHT22;4060;49.186;9.226;2023-06-26T14:05:25;34.30;31.90
7254;DHT22;4060;49.186;9.226;2023-06-26T14:07:55;34.30;31.80
7254;DHT22;4060;49.186;9.226;2023-06-26T14:10:26;34.30;31.70
7254;DHT22;4060;49.186;9.226;2023-06-26T14:12:55;34.30;31.50
7254;DHT22;4060;49.186;9.226;2023-06-26T14:15:25;34.40;31.50
7254;DHT22;4060;49.186;9.226;2023-06-26T14:17:55;34.40;31.50
7254;DHT22;4060;49.186;9.226;2023-06-26T14:20:25;34.40;31.40
7254;DHT22;4060;49.186;9.226;2023-06-26T14:22:55;34.40;31.20
7254;DHT22;4060;49.186;9.226;2023-06-26T14:25:26;34.40;31.10
7254;DHT22;4060;49.186;9.226;2023-06-26T14:27:57;34.40;31.00
7254;DHT22;4060;49.186;9.226;2023-06-26T14:30:27;34.40;30.90
7254;DHT22;4060;49.186;9.226;2023-06-26T14:32:56;34.40;30.80
7254;DHT22;4060;49.186;9.226;2023-06-26T14:35:31;34.40;30.70
7254;DHT22;4060;49.186;9.226;2023-06-26T14:38:00;34.50;30.70
7254;DHT22;4060;49.186;9.226;2023-06-26T14:40:32;34.50;30.50
7254;DHT22;4060;49.186;9.226;2023-06-26T14:43:01;34.50;30.50
7254;DHT22;4060;49.186;9.226;2023-06-26T14:45:31;34.50;30.40
7254;DHT22;4060;49.186;9.226;2023-06-26T14:48:00;34.50;30.20
7254;DHT22;4060;49.186;9.226;2023-06-26T14:50:29;34.60;30.00
7254;DHT22;4060;49.186;9.226;2023-06-26T14:52:59;34.60;30.00
7254;DHT22;4060;49.186;9.226;2023-06-26T14:55:31;34.60;30.00
7254;DHT22;4060;49.186;9.226;2023-06-26T14:58:01;34.60;29.90
7254;DHT22;4060;49.186;9.226;2023-06-26T15:00:29;34.60;29.90
7254;DHT22;4060;49.186;9.226;2023-06-26T15:02:58;34.70;29.90
7254;DHT22;4060;49.186;9.226;2023-06-26T15:05:27;34.70;29.80
7254;DHT22;4060;49.186;9.226;2023-06-26T15:07:57;34.70;29.80
7254;DHT22;4060;49.186;9.226;2023-06-26T15:10:27;34.70;29.70
7254;DHT22;4060;49.186;9.226;2023-06-26T15:12:59;34.70;29.70
7254;DHT22;4060;49.186;9.226;2023-06-26T15:15:28;34.70;29.60
7254;DHT22;4060;49.186;9.226;2023-06-26T15:17:58;34.70;29.60
7254;DHT22;4060;49.186;9.226;2023-06-26T15:20:28;34.70;29.50
7254;DHT22;4060;49.186;9.226;2023-06-26T15:22:57;34.70;29.50
7254;DHT22;4060;49.186;9.226;2023-06-26T15:25:27;34.70;29.40
7254;DHT22;4060;49.186;9.226;2023-06-26T15:28:00;34.70;29.40
7254;DHT22;4060;49.186;9.226;2023-06-26T15:30:30;34.70;29.40
7254;DHT22;4060;49.186;9.226;2023-06-26T15:32:59;34.70;29.40
7254;DHT22;4060;49.186;9.226;2023-06-26T15:35:29;34.70;29.40
7254;DHT22;4060;49.186;9.226;2023-06-26T15:37:58;34.70;29.30
7254;DHT22;4060;49.186;9.226;2023-06-26T15:40:28;34.70;29.20
7254;DHT22;4060;49.186;9.226;2023-06-26T15:43:00;34.70;29.20
7254;DHT22;4060;49.186;9.226;2023-06-26T15:45:30;34.70;29.20
7254;DHT22;4060;49.186;9.226;2023-06-26T15:48:00;34.70;29.10
7254;DHT22;4060;49.186;9.226;2023-06-26T15:50:29;34.70;29.00
7254;DHT22;4060;49.186;9.226;2023-06-26T15:53:01;34.70;28.90
7254;DHT22;4060;49.186;9.226;2023-06-26T15:55:31;34.70;28.90
7254;DHT22;4060;49.186;9.226;2023-06-26T15:58:02;34.70;28.90
7254;DHT22;4060;49.186;9.226;2023-06-26T16:00:31;34.70;28.70
7254;DHT22;4060;49.186;9.226;2023-06-26T16:03:01;34.70;28.60
7254;DHT22;4060;49.186;9.226;2023-06-26T16:05:31;34.70;28.60
7254;DHT22;4060;49.186;9.226;2023-06-26T16:08:00;34.70;28.50
7254;DHT22;4060;49.186;9.226;2023-06-26T16:10:30;34.70;28.50
7254;DHT22;4060;49.186;9.226;2023-06-26T16:13:01;34.70;28.40
7254;DHT22;4060;49.186;9.226;2023-06-26T16:15:30;34.70;28.40
7254;DHT22;4060;49.186;9.226;2023-06-26T16:18:00;34.70;28.30
7254;DHT22;4060;49.186;9.226;2023-06-26T16:20:29;34.70;28.20
7254;DHT22;4060;49.186;9.226;2023-06-26T16:23:00;34.70;28.00
7254;DHT22;4060;49.186;9.226;2023-06-26T16:25:30;34.70;28.10